createdAt,value
2018-02-08T00:02:57.335Z,94656.04
2018-02-08T00:06:00.631Z,94662.02
2018-02-08T00:09:03.912Z,94656.16
2018-02-08T00:12:07.182Z,94652.78
2018-02-08T00:15:10.494Z,94654.21
2018-02-08T00:18:14.543Z,94653.95
2018-02-08T00:21:17.808Z,94659.16
2018-02-08T00:24:21.088Z,94662.16
2018-02-08T00:27:24.364Z,94654.34
2018-02-08T00:30:27.644Z,94658.65
2018-02-08T00:33:30.932Z,94657.59
2018-02-08T00:36:34.200Z,94661.09
2018-02-08T00:39:37.475Z,94659.27
2018-02-08T00:42:41.524Z,94675.28
2018-02-08T00:45:44.809Z,94671.77
2018-02-08T00:48:48.851Z,94680.73
2018-02-08T00:51:52.130Z,94676.59
2018-02-08T00:54:55.420Z,94671.66
2018-02-08T00:57:58.744Z,94674.93
2018-02-08T01:01:01.983Z,94682.31
2018-02-08T01:04:05.266Z,94675.95
2018-02-08T01:07:08.549Z,94683.35
2018-02-08T01:10:11.833Z,94685.84
2018-02-08T01:13:15.128Z,94690.42
2018-02-08T01:16:18.408Z,94693.38
2018-02-08T01:19:21.728Z,94696.38
2018-02-08T01:22:24.996Z,94692.86
2018-02-08T01:25:28.309Z,94699.75
2018-02-08T01:28:32.847Z,94699.64
2018-02-08T01:31:39.389Z,94689.50
2018-02-08T01:34:42.640Z,94695.63
2018-02-08T01:37:45.915Z,94687.66
2018-02-08T01:40:49.198Z,94690.52
2018-02-08T01:43:52.488Z,94692.09
2018-02-08T01:46:55.780Z,94693.50
2018-02-08T01:49:59.065Z,94695.30
2018-02-08T01:53:04.349Z,94692.45
2018-02-08T01:56:07.624Z,94692.98
2018-02-08T01:59:10.894Z,94697.29
2018-02-08T02:02:15.476Z,94693.26
2018-02-08T02:05:18.850Z,94694.84
2018-02-08T02:08:22.138Z,94690.00
2018-02-08T02:11:25.413Z,94698.59
2018-02-08T02:14:29.457Z,94693.34
2018-02-08T02:17:32.729Z,94691.95
2018-02-08T02:20:36.795Z,94686.84
2018-02-08T02:23:40.067Z,94692.88
2018-02-08T02:26:43.432Z,94692.89
2018-02-08T02:29:47.480Z,94689.23
2018-02-08T02:33:00.576Z,94691.20
2018-02-08T02:36:03.848Z,94689.37
2018-02-08T02:39:07.133Z,94689.91
2018-02-08T02:42:10.414Z,94698.75
2018-02-08T02:45:13.697Z,94702.23
2018-02-08T02:48:16.967Z,94700.54
2018-02-08T02:51:21.109Z,94705.88
2018-02-08T02:54:24.383Z,94702.75
2018-02-08T02:57:28.432Z,94701.95
2018-02-08T03:00:31.870Z,94710.03
2018-02-08T03:03:35.166Z,94712.25
2018-02-08T03:06:38.539Z,94712.13
2018-02-08T03:09:41.825Z,94715.95
2018-02-08T03:12:45.094Z,94715.02
2018-02-08T03:15:49.145Z,94715.27
2018-02-08T03:18:52.432Z,94723.62
2018-02-08T03:22:03.396Z,94720.10
2018-02-08T03:25:07.616Z,94721.55
2018-02-08T03:28:10.881Z,94720.59
2018-02-08T03:31:14.928Z,94725.19
2018-02-08T03:34:18.561Z,94724.16
2018-02-08T03:37:21.833Z,94723.91
2018-02-08T03:40:25.103Z,94730.67
2018-02-08T03:43:29.147Z,94731.95
2018-02-08T03:46:32.412Z,94730.01
2018-02-08T03:49:36.464Z,94730.12
2018-02-08T03:52:39.777Z,94734.44
2018-02-08T03:55:43.071Z,94731.98
2018-02-08T03:58:46.543Z,94736.66
2018-02-08T04:01:50.673Z,94741.86
2018-02-08T04:04:53.952Z,94738.58
2018-02-08T04:07:57.992Z,94733.45
2018-02-08T04:11:01.282Z,94739.50
2018-02-08T04:14:05.357Z,94743.92
2018-02-08T04:17:08.624Z,94750.44
2018-02-08T04:20:11.909Z,94746.81
2018-02-08T04:23:15.188Z,94752.73
2018-02-08T04:26:18.478Z,94756.80
2018-02-08T04:29:22.511Z,94755.02
2018-02-08T04:32:25.829Z,94761.35
2018-02-08T04:35:29.111Z,94760.53
2018-02-08T04:46:16.475Z,94770.05
2018-02-08T04:49:19.737Z,94766.44
2018-02-08T04:52:23.026Z,94769.45
2018-02-08T04:55:26.296Z,94768.55
2018-02-08T04:58:29.567Z,94770.59
2018-02-08T05:01:32.913Z,94770.75
2018-02-08T05:04:36.272Z,94773.99
2018-02-08T05:07:39.556Z,94780.47
2018-02-08T05:10:42.861Z,94782.73
2018-02-08T05:13:46.136Z,94782.09
2018-02-08T05:16:50.192Z,94781.73
2018-02-08T05:19:53.598Z,94785.75
2018-02-08T05:22:56.919Z,94783.66
2018-02-08T05:26:00.423Z,94787.59
2018-02-08T05:29:03.825Z,94792.34
2018-02-08T05:32:07.274Z,94794.38
2018-02-08T05:35:10.596Z,94798.00
2018-02-08T05:38:13.869Z,94802.37
2018-02-08T05:41:17.217Z,94802.27
2018-02-08T05:44:20.673Z,94807.92
2018-02-08T05:47:23.999Z,94808.44
2018-02-08T05:50:27.296Z,94802.41
2018-02-08T05:53:30.580Z,94798.89
2018-02-08T05:56:33.928Z,94799.16
2018-02-08T05:59:37.279Z,94801.25
2018-02-08T06:02:40.618Z,94804.63
2018-02-08T06:05:43.992Z,94802.91
2018-02-08T06:08:48.809Z,94812.41
2018-02-08T06:11:52.399Z,94815.92
2018-02-08T06:14:55.673Z,94811.63
2018-02-08T06:17:59.744Z,94815.18
2018-02-08T06:21:03.039Z,94818.80
2018-02-08T06:24:06.359Z,94823.75
2018-02-08T06:27:09.631Z,94831.69
2018-02-08T06:30:13.414Z,94839.39
2018-02-08T06:33:16.689Z,94843.52
2018-02-08T06:36:20.748Z,94840.44
2018-02-08T06:39:24.053Z,94849.82
2018-02-08T06:42:27.342Z,94851.27
2018-02-08T06:45:30.640Z,94852.75
2018-02-08T06:48:33.989Z,94858.61
2018-02-08T06:51:37.293Z,94860.07
2018-02-08T06:54:40.581Z,94869.70
2018-02-08T06:57:44.023Z,94867.22
2018-02-08T07:00:47.333Z,94874.70
2018-02-08T07:03:50.656Z,94869.64
2018-02-08T07:06:53.984Z,94878.41
2018-02-08T07:09:58.032Z,94878.39
2018-02-08T07:13:01.336Z,94884.77
2018-02-08T07:16:04.604Z,94881.50
2018-02-08T07:19:08.652Z,94889.88
2018-02-08T07:22:11.921Z,94893.84
2018-02-08T07:25:15.964Z,94902.42
2018-02-08T07:28:19.255Z,94897.55
2018-02-08T07:31:22.522Z,94900.13
2018-02-08T07:34:26.572Z,94905.04
2018-02-08T07:37:29.854Z,94908.77
2018-02-08T07:40:33.131Z,94908.03
2018-02-08T07:43:37.304Z,94912.09
2018-02-08T07:46:40.597Z,94920.20
2018-02-08T07:49:45.888Z,94926.78
2018-02-08T07:52:49.960Z,94924.37
2018-02-08T07:55:53.350Z,94930.23
2018-02-08T07:58:56.644Z,94927.84
2018-02-08T08:01:59.933Z,94931.22
2018-02-08T08:05:03.218Z,94933.00
2018-02-08T08:08:07.281Z,94931.31
2018-02-08T08:11:10.561Z,94928.27
2018-02-08T08:14:13.869Z,94925.77
2018-02-08T08:17:17.327Z,94932.48
2018-02-08T08:20:21.372Z,94931.39
2018-02-08T08:23:24.642Z,94942.52
2018-02-08T08:26:28.719Z,94942.23
2018-02-08T08:29:32.776Z,94938.91
2018-02-08T08:32:36.057Z,94937.52
2018-02-08T08:35:40.123Z,94932.83
2018-02-08T08:38:43.411Z,94943.39
2018-02-08T08:41:46.800Z,94948.64
2018-02-08T08:44:50.124Z,94947.23
2018-02-08T08:47:53.408Z,94956.98
2018-02-08T08:50:56.773Z,94946.44
2018-02-08T08:54:00.879Z,94961.18
2018-02-08T08:57:05.012Z,94957.12
2018-02-08T09:00:08.319Z,94959.71
2018-02-08T09:03:11.597Z,94959.20
2018-02-08T09:06:16.902Z,94963.52
2018-02-08T09:09:20.181Z,94965.86
2018-02-08T09:12:23.451Z,94967.80
2018-02-08T09:15:26.745Z,94973.96
2018-02-08T09:18:30.056Z,94982.23
2018-02-08T09:21:33.450Z,94977.87
2018-02-08T09:24:36.743Z,94978.58
2018-02-08T09:27:40.024Z,94981.83
2018-02-08T09:30:43.316Z,94981.01
2018-02-08T09:33:47.360Z,94980.09
2018-02-08T09:36:50.641Z,94983.51
2018-02-08T09:39:53.939Z,94975.80
2018-02-08T09:42:57.226Z,94976.42
2018-02-08T09:46:00.617Z,94980.64
2018-02-08T09:49:04.656Z,94984.02
2018-02-08T09:52:07.939Z,94980.75
2018-02-08T09:55:11.964Z,94984.41
2018-02-08T09:58:15.999Z,94984.56
2018-02-08T10:01:19.312Z,94988.47
2018-02-08T10:04:22.604Z,94985.83
2018-02-08T10:07:25.866Z,94984.28
2018-02-08T10:10:29.154Z,94990.55
2018-02-08T10:13:33.190Z,94990.28
2018-02-08T10:16:36.468Z,94987.00
2018-02-08T10:19:40.505Z,94987.92
2018-02-08T10:22:43.796Z,94982.98
2018-02-08T10:25:47.074Z,94984.44
2018-02-08T10:28:51.212Z,94985.45
2018-02-08T10:31:54.489Z,94984.15
2018-02-08T10:34:58.526Z,94981.27
2018-02-08T10:38:01.804Z,94977.17
2018-02-08T10:41:05.834Z,94984.31
2018-02-08T10:44:09.112Z,94982.94
2018-02-08T10:47:13.153Z,94985.54
2018-02-08T10:50:16.444Z,94984.25
2018-02-08T10:53:19.720Z,94979.17
2018-02-08T10:56:23.756Z,94980.14
2018-02-08T10:59:27.011Z,94981.58
2018-02-08T11:02:30.285Z,94976.67
2018-02-08T11:05:33.549Z,94973.95
2018-02-08T11:08:36.823Z,94975.44
2018-02-08T11:11:40.912Z,94969.44
2018-02-08T11:14:44.193Z,94971.20
2018-02-08T11:17:47.467Z,94969.94
2018-02-08T11:20:50.732Z,94965.11
2018-02-08T11:23:54.760Z,94971.44
2018-02-08T11:26:58.980Z,94968.85
2018-02-08T11:30:03.310Z,94969.64
2018-02-08T11:33:06.592Z,94966.97
2018-02-08T11:36:10.622Z,94968.83
2018-02-08T11:39:13.901Z,94968.92
2018-02-08T11:42:18.233Z,94976.66
2018-02-08T11:45:21.518Z,94981.02
2018-02-08T11:48:25.551Z,94981.19
2018-02-08T11:51:28.828Z,94980.11
2018-02-08T11:54:32.854Z,94982.62
2018-02-08T11:57:37.125Z,94971.02
2018-02-08T12:00:40.380Z,94975.56
2018-02-08T12:03:43.650Z,94977.95
2018-02-08T12:06:46.919Z,94976.02
2018-02-08T12:09:50.214Z,94977.27
2018-02-08T12:12:53.484Z,94973.34
2018-02-08T12:15:56.752Z,94978.86
2018-02-08T12:19:00.794Z,94976.80
2018-02-08T12:22:04.059Z,94975.60
2018-02-08T12:25:08.097Z,94977.42
2018-02-08T12:28:11.375Z,94976.37
2018-02-08T12:31:15.435Z,94968.79
2018-02-08T12:34:18.701Z,94968.90
2018-02-08T12:37:21.978Z,94966.58
2018-02-08T12:40:26.043Z,94962.11
2018-02-08T12:43:29.315Z,94957.43
2018-02-08T12:46:32.631Z,94959.17
2018-02-08T12:49:35.898Z,94962.02
2018-02-08T12:52:39.941Z,94960.02
2018-02-08T12:55:43.220Z,94961.14
2018-02-08T12:58:46.529Z,94962.25
2018-02-08T13:01:49.801Z,94964.48
2018-02-08T13:04:53.834Z,94959.01
2018-02-08T13:07:57.106Z,94968.99
2018-02-08T13:11:01.140Z,94964.27
2018-02-08T13:14:04.408Z,94960.38
2018-02-08T13:17:08.448Z,94959.02
2018-02-08T13:20:11.742Z,94958.63
2018-02-08T13:23:15.769Z,94958.13
2018-02-08T13:26:19.058Z,94953.30
2018-02-08T13:29:22.463Z,94953.98
2018-02-08T13:32:25.753Z,94946.08
2018-02-08T13:35:29.793Z,94947.68
2018-02-08T13:38:33.061Z,94948.52
2018-02-08T13:41:37.084Z,94947.98
2018-02-08T13:44:40.376Z,94958.42
2018-02-08T13:47:50.020Z,94948.89
2018-02-08T13:50:54.996Z,94953.80
2018-02-08T13:54:03.900Z,94958.94
2018-02-08T13:57:15.557Z,94963.37
2018-02-08T14:00:36.661Z,94963.30
2018-02-08T14:03:39.929Z,94966.20
2018-02-08T14:06:43.259Z,94964.88
2018-02-08T14:09:46.596Z,94963.77
2018-02-08T14:12:49.876Z,94963.63
2018-02-08T14:15:53.921Z,94965.89
2018-02-08T14:18:57.209Z,94967.78
2018-02-08T14:22:00.503Z,94965.19
2018-02-08T14:25:04.534Z,94967.27
2018-02-08T14:28:07.827Z,94965.33
2018-02-08T14:31:11.117Z,94965.17
2018-02-08T14:34:14.409Z,94962.72
2018-02-08T14:37:18.467Z,94966.50
2018-02-08T14:40:21.748Z,94962.72
2018-02-08T14:43:25.021Z,94958.80
2018-02-08T14:46:28.629Z,94956.97
2018-02-08T14:49:32.928Z,94964.29
2018-02-08T14:52:36.986Z,94960.75
2018-02-08T14:55:40.272Z,94960.14
2018-02-08T14:58:43.967Z,94957.55
2018-02-08T15:01:48.052Z,94956.59
2018-02-08T15:04:52.104Z,94962.55
2018-02-08T15:07:55.770Z,94964.02
2018-02-08T15:10:59.212Z,94965.78
2018-02-08T15:14:02.484Z,94960.03
2018-02-08T15:17:06.517Z,94967.50
2018-02-08T15:20:09.900Z,94960.28
2018-02-08T15:23:13.941Z,94971.21
2018-02-08T15:26:17.326Z,94973.70
2018-02-08T15:29:21.356Z,94968.33
2018-02-08T15:32:24.649Z,94967.62
2018-02-08T15:35:27.939Z,94970.55
2018-02-08T15:38:31.970Z,94965.25
2018-02-08T15:41:35.251Z,94962.55
2018-02-08T15:44:39.297Z,94971.39
2018-02-08T15:47:42.724Z,94976.61
2018-02-08T15:50:46.157Z,94977.94
2018-02-08T15:53:50.199Z,94977.27
2018-02-08T15:56:53.485Z,94978.34
2018-02-08T15:59:56.992Z,94977.92
2018-02-08T16:03:00.300Z,94974.05
2018-02-08T16:06:03.562Z,94973.39
2018-02-08T16:09:07.612Z,94981.98
2018-02-08T16:12:10.942Z,94980.83
2018-02-08T16:15:14.212Z,94975.88
2018-02-08T16:18:17.503Z,94978.37
2018-02-08T16:21:20.917Z,94975.27
2018-02-08T16:24:24.185Z,94979.03
2018-02-08T16:27:27.589Z,94982.18
2018-02-08T16:30:30.888Z,94987.94
2018-02-08T16:33:34.180Z,94990.02
2018-02-08T16:36:37.483Z,94991.48
2018-02-08T16:39:40.906Z,94995.89
2018-02-08T16:42:44.207Z,95000.21
2018-02-08T16:45:48.077Z,94997.45
2018-02-08T16:48:51.408Z,95004.50
2018-02-08T16:51:54.704Z,95009.73
2018-02-08T16:54:57.989Z,95012.98
2018-02-08T16:58:01.685Z,95010.63
2018-02-08T17:01:04.988Z,95014.05
2018-02-08T17:04:08.377Z,95016.40
2018-02-08T17:07:11.648Z,95021.63
2018-02-08T17:10:14.951Z,95019.01
2018-02-08T17:13:18.217Z,95017.98
2018-02-08T17:16:21.502Z,95023.59
2018-02-08T17:19:24.815Z,95021.50
2018-02-08T17:22:28.093Z,95024.36
2018-02-08T17:25:31.387Z,95026.58
2018-02-08T17:28:34.685Z,95030.23
2018-02-08T17:31:37.957Z,95022.41
2018-02-08T17:34:41.248Z,95018.11
2018-02-08T17:37:44.530Z,95030.63
2018-02-08T17:40:48.604Z,95028.14
2018-02-08T17:43:51.910Z,95028.93
2018-02-08T17:46:55.180Z,95026.43
2018-02-08T17:49:58.479Z,95027.48
2018-02-08T17:53:01.781Z,95026.45
2018-02-08T17:56:05.071Z,95034.14
2018-02-08T17:59:08.377Z,95026.59
2018-02-08T18:02:11.827Z,95032.72
2018-02-08T18:05:15.086Z,95029.84
2018-02-08T18:08:18.385Z,95035.58
2018-02-08T18:11:21.730Z,95031.55
2018-02-08T18:14:25.004Z,95040.16
2018-02-08T18:17:28.324Z,95037.56
2018-02-08T18:20:32.429Z,95039.11
2018-02-08T18:23:36.517Z,95047.88
2018-02-08T18:26:39.829Z,95038.98
2018-02-08T18:29:43.326Z,95042.90
2018-02-08T18:32:46.645Z,95050.19
2018-02-08T18:35:49.924Z,95052.39
2018-02-08T18:38:53.220Z,95050.85
2018-02-08T18:41:57.257Z,95049.95
2018-02-08T18:45:00.568Z,95058.41
2018-02-08T18:48:04.632Z,95058.30
2018-02-08T18:51:07.980Z,95050.59
2018-02-08T18:54:11.256Z,95059.98
2018-02-08T18:57:14.535Z,95056.74
2018-02-08T19:00:17.847Z,95054.91
2018-02-08T19:03:21.150Z,95059.59
2018-02-08T19:06:24.476Z,95060.89
2018-02-08T19:09:28.672Z,95060.61
2018-02-08T19:12:31.935Z,95062.58
2018-02-08T19:15:35.452Z,95056.80
2018-02-08T19:18:38.796Z,95059.67
2018-02-08T19:21:42.880Z,95066.23
2018-02-08T19:24:46.173Z,95067.57
2018-02-08T19:27:49.523Z,95072.51
2018-02-08T19:31:06.232Z,95071.34
2018-02-08T19:34:10.101Z,95070.29
2018-02-08T19:37:13.481Z,95074.77
2018-02-08T19:40:19.235Z,95076.19
2018-02-08T19:43:31.749Z,95071.75
2018-02-08T19:46:40.409Z,95076.95
2018-02-08T19:49:45.828Z,95078.91
2018-02-08T19:52:58.188Z,95074.98
2018-02-08T19:56:03.815Z,95074.87
2018-02-08T19:59:08.258Z,95083.38
2018-02-08T20:02:16.331Z,95081.27
2018-02-08T20:05:21.960Z,95079.83
2018-02-08T20:08:27.097Z,95075.39
2018-02-08T20:11:30.509Z,95081.11
2018-02-08T20:14:34.104Z,95084.38
2018-02-08T20:17:38.245Z,95075.25
2018-02-08T20:20:41.537Z,95077.09
2018-02-08T20:23:44.854Z,95081.53
2018-02-08T20:26:48.429Z,95077.64
2018-02-08T20:29:51.782Z,95072.03
2018-02-08T20:32:55.150Z,95076.05
2018-02-08T20:36:00.077Z,95066.50
2018-02-08T20:39:03.370Z,95069.36
2018-02-08T20:42:06.661Z,95071.72
2018-02-08T20:45:09.945Z,95076.55
2018-02-08T20:48:14.056Z,95070.44
2018-02-08T20:51:19.581Z,95073.31
2018-02-08T20:54:22.854Z,95070.31
2018-02-08T20:57:26.163Z,95077.63
2018-02-08T21:00:29.924Z,95069.39
2018-02-08T21:03:33.969Z,95065.56
2018-02-08T21:06:37.332Z,95060.36
2018-02-08T21:09:41.389Z,95059.46
2018-02-08T21:12:44.760Z,95056.59
2018-02-08T21:15:48.050Z,95053.33
2018-02-08T21:18:52.077Z,95058.84
2018-02-08T21:21:55.364Z,95057.23
2018-02-08T21:24:58.740Z,95057.13
2018-02-08T21:28:02.036Z,95055.57
2018-02-08T21:31:05.376Z,95052.96
2018-02-08T21:34:08.755Z,95049.44
2018-02-08T21:37:12.795Z,95045.27
2018-02-08T21:40:16.080Z,95047.08
2018-02-08T21:43:19.351Z,95044.45
2018-02-08T21:46:22.626Z,95044.33
2018-02-08T21:49:25.900Z,95037.52
2018-02-08T21:52:29.167Z,95033.22
2018-02-08T21:55:32.455Z,95041.72
2018-02-08T21:58:36.495Z,95034.80
2018-02-08T22:01:39.771Z,95033.24
2018-02-08T22:04:43.062Z,95029.70
2018-02-08T22:07:46.365Z,95031.53
2018-02-08T22:10:50.411Z,95031.94
2018-02-08T22:13:53.824Z,95029.05
2018-02-08T22:16:57.321Z,95027.88
2018-02-08T22:20:01.830Z,95031.02
2018-02-08T22:23:05.097Z,95026.72
2018-02-08T22:26:09.187Z,95026.05
2018-02-08T22:29:12.444Z,95031.14
2018-02-08T22:32:15.817Z,95026.42
2018-02-08T22:35:19.961Z,95025.66
2018-02-08T22:38:23.238Z,95024.47
2018-02-08T22:41:26.556Z,95029.31
2018-02-08T22:44:29.853Z,95032.98
2018-02-08T22:47:33.192Z,95031.81
2018-02-08T22:50:36.475Z,95035.84
2018-02-08T22:53:39.785Z,95027.75
2018-02-08T22:56:43.100Z,95027.73
2018-02-08T22:59:46.381Z,95032.05
2018-02-08T23:02:49.714Z,95027.22
2018-02-08T23:05:53.768Z,95023.56
2018-02-08T23:08:57.040Z,95019.77
2018-02-08T23:12:00.314Z,95021.75
2018-02-08T23:15:03.731Z,95027.88
2018-02-08T23:18:07.768Z,95030.88
2018-02-08T23:21:11.051Z,95035.70
2018-02-08T23:24:14.335Z,95030.75
2018-02-08T23:27:18.399Z,95030.33
2018-02-08T23:30:21.717Z,95024.59
2018-02-08T23:33:25.001Z,95028.80
2018-02-08T23:36:29.228Z,95029.69
2018-02-08T23:39:32.521Z,95030.99
2018-02-08T23:42:35.788Z,95026.58
2018-02-08T23:45:39.057Z,95026.42
2018-02-08T23:48:43.252Z,95022.66
2018-02-08T23:51:46.545Z,95016.26
2018-02-08T23:54:49.839Z,95012.87
2018-02-08T23:57:53.124Z,95012.62
